Labelle, Florida
Current Conditions -  °F | °C
As of 5:55 PM on Monday 24 Nov 2014 (Local Time) from KIMM Reporting Station
Clear Clear  
Wind Chill: 81°   Ceiling: Unl
Heat Index: 85°   Visibility: 8mi
Dew Point: 72°   Wind: 0mph
Humidity: 74%   Direction: NA
Pressure: 29.98"   Gusts: NA
Location:  26.7507°N, 81.4305°W
Report Text: KIMM 242255Z AUTO 00000KT 8SM CLR 27/22 A2998 RMK A01 P000
Loading
Personal Weather Stations






























Interactive Weather Map New forecast layout! Learn more

10-Day Weather Forecast

Advertisements
Track Severe Weather on mobile